»·PEaware :: N459KM 6S2-KOTH

N459KM :: 6S2-KOTH

FLIGHT INFORMATION

Flight Status: Arrived
Operator: Privately registered:
United States
More flights under this callsign
Pilot: Jarrett L. (8209)
Aircraft: PIPER PA-28 CHEROKEE ARCHER
(PA28)
More flights by this aircraft type
Origin: 6S2 Florence Mun
United States
Destination: KOTH North Bend Mun
United States
More flights between these airports :: More routes between these airports
Route:
File this flight plan on PilotEdge
Remarks: FSE
Altitude:
(Current/Filed)
6,000ft
Speed:
(Current/Filed)
140kts
Departed: 18-Nov-17 10:59 AM
Arrived: 18-Nov-17 11:30 AM
Distance/Time
Traveled:
34nm/0:30
Distance/Time
To Go:
Arrived

Flight Plot

Page will automatically refresh every two minutes.

Flight plan parsing failed; only flown route is shown


Map Options




Map Legend


Flown Route
Filed Route
Departure Airport
Arrival Airport
Navaid (VOR, NDB)
Fix

Horizontal Profiles

Position Reports

Time Latitude Longitude Heading Altitude Ground
Speed
18-Nov-17 10:46 43.983278 -124.110289 168 50ft 0kts
18-Nov-17 10:47 43.983278 -124.110289 168 50ft 0kts
18-Nov-17 10:48 43.983278 -124.110289 168 50ft 0kts
18-Nov-17 10:49 43.983278 -124.110289 168 50ft 0kts
18-Nov-17 10:50 43.983278 -124.110289 168 50ft 0kts
18-Nov-17 10:51 43.983278 -124.110289 168 50ft 0kts
18-Nov-17 10:52 43.983278 -124.110289 168 50ft 0kts
18-Nov-17 10:53 43.983278 -124.110289 168 50ft 0kts
18-Nov-17 10:54 43.983278 -124.110289 168 50ft 0kts
18-Nov-17 10:55 43.983278 -124.110289 167 50ft 0kts
18-Nov-17 10:56 43.983274 -124.110284 167 50ft 0kts
18-Nov-17 10:57 43.983274 -124.110284 167 50ft 0kts
18-Nov-17 10:58 43.983274 -124.110284 167 50ft 0kts
18-Nov-17 10:59 43.983274 -124.110284 167 50ft 0kts
18-Nov-17 11:00 43.983274 -124.110284 167 50ft 0kts
18-Nov-17 11:01 43.983274 -124.110284 167 50ft 0kts
18-Nov-17 11:02 43.979715 -124.109715 166 45ft 19kts
18-Nov-17 11:03 43.978934 -124.109589 219 44ft 0kts
18-Nov-17 11:04 43.983487 -124.111578 346 83ft 69kts
18-Nov-17 11:05 43.990966 -124.130518 206 1006ft 73kts
18-Nov-17 11:06 43.973709 -124.126012 161 1949ft 64kts
18-Nov-17 11:07 43.956114 -124.123199 173 3314ft 56kts
18-Nov-17 11:08 43.945589 -124.123252 178 3784ft 71kts
18-Nov-17 11:09 43.983279 -124.110291 168 50ft 0kts
18-Nov-17 11:10 43.983279 -124.110291 168 50ft 0kts
18-Nov-17 11:11 43.986155 -124.112392 166 53ft 20kts
18-Nov-17 11:12 43.970093 -124.109395 187 718ft 65kts
18-Nov-17 11:13 43.951687 -124.115584 185 1621ft 66kts
18-Nov-17 11:14 43.933457 -124.120815 184 2497ft 66kts
18-Nov-17 11:15 43.915788 -124.125465 185 3333ft 64kts
18-Nov-17 11:16 43.898543 -124.129859 187 4126ft 63kts
18-Nov-17 11:17 43.881548 -124.134277 189 4873ft 62kts
18-Nov-17 11:18 43.864678 -124.138576 191 5572ft 62kts
18-Nov-17 11:19 43.847700 -124.142771 192 6229ft 62kts
18-Nov-17 11:20 43.829431 -124.147305 194 6613ft 74kts
18-Nov-17 11:21 43.804842 -124.153603 192 6176ft 112kts
18-Nov-17 11:22 43.772481 -124.161491 191 5679ft 128kts
18-Nov-17 11:23 43.736270 -124.170312 189 4725ft 135kts
18-Nov-17 11:24 43.699878 -124.179020 189 4047ft 125kts
18-Nov-17 11:25 43.667691 -124.186723 190 4039ft 114kts
18-Nov-17 11:26 43.636482 -124.194267 190 4039ft 114kts
18-Nov-17 11:27 43.605257 -124.201790 190 4039ft 114kts
18-Nov-17 11:28 43.576313 -124.218016 207 3934ft 115kts
18-Nov-17 11:29 43.546738 -124.234096 196 3461ft 113kts
18-Nov-17 11:30 43.517003 -124.246803 196 3019ft 111kts
18-Nov-17 11:31 43.487105 -124.258078 192 2372ft 112kts
18-Nov-17 11:32 43.457362 -124.267546 189 1829ft 94kts
18-Nov-17 11:33 43.435896 -124.258789 150 490ft 70kts
18-Nov-17 11:34 43.420739 -124.246882 148 41ft 59kts
18-Nov-17 11:35 43.411530 -124.240456 240 7ft 0kts
18-Nov-17 11:36 43.411530 -124.240456 240 7ft 0kts
18-Nov-17 11:37 43.414611 -124.243520 328 7ft 21kts
18-Nov-17 11:38 43.415361 -124.245126 325 7ft 0kts
18-Nov-17 11:39 43.415361 -124.245126 325 7ft 0kts
18-Nov-17 11:40 43.417583 -124.247446 150 7ft 0kts

Navigation Log

Ident Type
Flight plan parsing failed, navigation log unavailable